Golden, Mississippi
Current Conditions -  °F | °C
As of 1:53 AM on Saturday 20 Dec 2014 (Local Time) from KTUP Reporting Station
Few Clouds Few Clouds  
Wind Chill: 32°   Ceiling: Unl
Heat Index: 37°   Visibility: 9mi
Dew Point: 33°   Wind: 6mph
Humidity: 86%   Direction: 50°NE
Pressure: 30.2"   Gusts: NA
Location:  34.49°N, 88.19°W
Report Text: KTUP 200753Z AUTO 05005KT 9SM FEW100 03/01 A3020 RMK AO2 SLP227 T00280006
Loading
Personal Weather Stations






























Interactive Weather Map New forecast layout! Learn more

10-Day Weather Forecast

Advertisements
Track Severe Weather on mobile